Time;durP1;ratioP1;P1;durP2;ratioP2;P2;SDS_P1;SDS_P2;PMS_P1;PMS_P2;Temp;Humidity;BMP_temperature;BMP_pressure;BME280_temperature;BME280_humidity;BME280_pressure;Samples;Min_cycle;Max_cycle;Signal;HPM_P1;HPM_P2
2022/03/26 00:01:08;;;;;;;8.23;6.67;;;;;;;;;;5050541;28;20218;-68
2022/03/26 00:03:36;;;;;;;7.37;6.67;;;;;;;;;;5069295;28;20186;-68
2022/03/26 00:06:05;;;;;;;7.30;6.50;;;;;;;;;;5065761;28;20229;-67
2022/03/26 00:08:33;;;;;;;6.70;6.00;;;;;;;;;;5069646;28;20220;-67
2022/03/26 00:11:00;;;;;;;8.07;5.97;;;;;;;;;;5065386;28;20729;-68
2022/03/26 00:13:27;;;;;;;7.13;6.43;;;;;;;;;;5069460;28;20266;-68
2022/03/26 00:15:54;;;;;;;6.60;5.90;;;;;;;;;;5070282;28;20623;-68
2022/03/26 00:18:21;;;;;;;6.40;5.80;;;;;;;;;;5063394;28;20242;-68
2022/03/26 00:20:48;;;;;;;8.13;6.00;;;;;;;;;;5066662;28;20503;-68
2022/03/26 00:23:16;;;;;;;7.60;6.03;;;;;;;;;;5052437;28;20623;-68
2022/03/26 00:25:43;;;;;;;6.73;6.10;;;;;;;;;;5068104;28;20621;-68
2022/03/26 00:28:11;;;;;;;6.37;5.77;;;;;;;;;;5068077;28;20197;-68
2022/03/26 00:30:38;;;;;;;6.97;6.13;;;;;;;;;;5065898;28;20201;-67
2022/03/26 00:33:05;;;;;;;6.23;5.57;;;;;;;;;;5066734;28;20291;-68
2022/03/26 00:35:32;;;;;;;7.53;5.30;;;;;;;;;;5048977;28;20201;-68
2022/03/26 00:38:00;;;;;;;7.40;5.40;;;;;;;;;;5068575;28;20330;-68
2022/03/26 00:40:27;;;;;;;7.07;5.83;;;;;;;;;;5068068;28;20275;-68
2022/03/26 00:42:54;;;;;;;6.30;5.70;;;;;;;;;;5063527;28;20218;-68
2022/03/26 00:45:24;;;;;;;6.37;5.77;;;;;;;;;;5060787;28;20240;-67
2022/03/26 00:47:51;;;;;;;5.90;5.30;;;;;;;;;;5068624;28;20638;-68
2022/03/26 00:50:18;;;;;;;7.00;6.20;;;;;;;;;;5068793;28;20227;-68
2022/03/26 00:52:45;;;;;;;6.20;5.60;;;;;;;;;;5062687;28;20286;-69
2022/03/26 00:55:12;;;;;;;6.53;5.83;;;;;;;;;;5067769;28;20220;-67
2022/03/26 00:57:39;;;;;;;6.10;5.40;;;;;;;;;;5049254;28;20239;-68
2022/03/26 01:00:07;;;;;;;5.93;5.00;;;;;;;;;;5067290;28;20220;-68
2022/03/26 01:02:35;;;;;;;5.80;5.23;;;;;;;;;;5072425;28;20189;-68
2022/03/26 01:05:02;;;;;;;7.40;5.67;;;;;;;;;;5062617;28;20636;-68
2022/03/26 01:07:29;;;;;;;6.77;5.37;;;;;;;;;;5067720;28;20205;-67
2022/03/26 01:09:56;;;;;;;7.17;5.50;;;;;;;;;;5068340;28;20189;-68
2022/03/26 01:12:24;;;;;;;7.00;6.10;;;;;;;;;;5068177;28;20202;-67
2022/03/26 01:14:52;;;;;;;6.20;5.53;;;;;;;;;;5070737;28;20217;-69
2022/03/26 01:17:20;;;;;;;5.97;5.37;;;;;;;;;;5066210;28;20279;-68
2022/03/26 01:19:47;;;;;;;7.67;6.03;;;;;;;;;;5067148;28;20197;-68
2022/03/26 01:22:14;;;;;;;5.60;5.07;;;;;;;;;;5074290;28;20246;-68
2022/03/26 01:24:41;;;;;;;6.20;5.60;;;;;;;;;;5068241;28;20634;-68
2022/03/26 01:27:08;;;;;;;5.87;5.30;;;;;;;;;;5062608;28;20194;-68
2022/03/26 01:29:40;;;;;;;6.33;5.30;;;;;;;;;;5046383;28;20808;-67
2022/03/26 01:32:08;;;;;;;6.20;5.50;;;;;;;;;;5067827;28;20194;-68
2022/03/26 01:34:37;;;;;;;5.90;5.30;;;;;;;;;;5067273;28;20202;-68
2022/03/26 01:37:05;;;;;;;6.37;5.13;;;;;;;;;;5064203;28;20386;-68
2022/03/26 01:39:32;;;;;;;6.13;5.53;;;;;;;;;;5067223;28;21583;-68
2022/03/26 01:42:03;;;;;;;6.23;5.57;;;;;;;;;;5064181;28;20721;-68
2022/03/26 01:44:30;;;;;;;5.90;5.30;;;;;;;;;;5067137;28;20209;-68
2022/03/26 01:46:59;;;;;;;6.60;5.43;;;;;;;;;;5056699;28;20194;-68
2022/03/26 01:49:27;;;;;;;6.30;5.70;;;;;;;;;;5067900;28;20695;-68
2022/03/26 01:51:54;;;;;;;6.40;5.80;;;;;;;;;;5075666;28;20519;-68
2022/03/26 01:54:22;;;;;;;6.53;5.67;;;;;;;;;;5064070;28;20213;-68
2022/03/26 01:56:49;;;;;;;5.33;4.83;;;;;;;;;;5064674;28;20202;-67
2022/03/26 01:59:17;;;;;;;5.97;5.37;;;;;;;;;;5065784;28;20186;-68
2022/03/26 02:01:44;;;;;;;5.80;5.20;;;;;;;;;;5066846;28;20213;-68
2022/03/26 02:04:12;;;;;;;5.60;5.10;;;;;;;;;;5067194;28;20212;-68
2022/03/26 02:06:40;;;;;;;5.67;5.07;;;;;;;;;;5065097;28;20214;-68
2022/03/26 02:09:09;;;;;;;7.30;5.23;;;;;;;;;;5064747;28;20198;-68
2022/03/26 02:11:37;;;;;;;6.57;5.07;;;;;;;;;;5066118;28;20190;-68
2022/03/26 02:14:07;;;;;;;5.70;5.10;;;;;;;;;;5065636;28;20678;-68
2022/03/26 02:16:35;;;;;;;6.23;5.63;;;;;;;;;;5066078;28;20202;-67
2022/03/26 02:19:03;;;;;;;5.47;4.97;;;;;;;;;;5038606;28;20519;-68
2022/03/26 02:21:31;;;;;;;6.30;5.60;;;;;;;;;;5062437;28;20267;-68
2022/03/26 02:23:58;;;;;;;6.27;5.37;;;;;;;;;;5066759;28;20205;-68
2022/03/26 02:26:31;;;;;;;5.37;4.87;;;;;;;;;;5022910;28;20198;-68
2022/03/26 02:29:13;;;;;;;6.33;5.23;;;;;;;;;;5032709;28;20202;-68
2022/03/26 02:31:44;;;;;;;5.57;5.07;;;;;;;;;;5065877;28;20221;-68
2022/03/26 02:34:13;;;;;;;6.37;5.20;;;;;;;;;;5066605;28;20617;-68
2022/03/26 02:36:44;;;;;;;5.73;5.13;;;;;;;;;;5066733;28;20663;-68
2022/03/26 02:39:27;;;;;;;5.67;5.13;;;;;;;;;;5066551;28;20236;-68
2022/03/26 02:42:00;;;;;;;5.77;5.20;;;;;;;;;;5063253;28;20226;-68
2022/03/26 02:44:31;;;;;;;6.50;5.03;;;;;;;;;;5065855;28;20197;-67
2022/03/26 02:47:04;;;;;;;5.57;5.07;;;;;;;;;;5062061;28;20267;-69
2022/03/26 02:49:35;;;;;;;6.50;5.33;;;;;;;;;;5066216;28;20189;-68
2022/03/26 02:52:04;;;;;;;6.03;5.43;;;;;;;;;;5064003;28;20683;-68
2022/03/26 02:54:33;;;;;;;5.37;4.67;;;;;;;;;;5050279;28;20304;-67
2022/03/26 02:57:03;;;;;;;6.20;5.60;;;;;;;;;;5070174;28;20187;-67
2022/03/26 02:59:30;;;;;;;5.40;4.90;;;;;;;;;;5041174;28;20197;-68
2022/03/26 03:01:57;;;;;;;6.57;5.50;;;;;;;;;;5066457;28;20221;-67
2022/03/26 03:04:24;;;;;;;5.73;5.13;;;;;;;;;;5066693;28;20193;-68
2022/03/26 03:06:52;;;;;;;6.67;5.53;;;;;;;;;;5060771;28;20631;-68
2022/03/26 03:09:19;;;;;;;6.03;5.43;;;;;;;;;;5066242;28;20224;-68
2022/03/26 03:11:46;;;;;;;5.83;5.30;;;;;;;;;;5065432;28;20194;-67
2022/03/26 03:14:14;;;;;;;5.97;5.37;;;;;;;;;;5071118;28;20208;-68
2022/03/26 03:16:41;;;;;;;7.57;5.77;;;;;;;;;;5067180;28;20255;-68
2022/03/26 03:19:09;;;;;;;6.10;5.50;;;;;;;;;;5060706;28;20724;-69
2022/03/26 03:21:37;;;;;;;6.77;5.10;;;;;;;;;;5066160;28;20228;-69
2022/03/26 03:24:04;;;;;;;6.33;5.37;;;;;;;;;;5066674;28;20204;-69
2022/03/26 03:26:31;;;;;;;6.27;5.70;;;;;;;;;;5052148;28;20709;-68
2022/03/26 03:28:59;;;;;;;7.10;5.40;;;;;;;;;;5061873;28;20271;-68
2022/03/26 03:31:28;;;;;;;6.17;5.57;;;;;;;;;;5069121;28;20197;-68
2022/03/26 03:33:55;;;;;;;5.53;4.97;;;;;;;;;;5070451;28;20279;-68
2022/03/26 03:36:23;;;;;;;5.57;5.00;;;;;;;;;;5069194;28;20217;-68
2022/03/26 03:38:50;;;;;;;6.83;6.00;;;;;;;;;;5066674;28;20205;-67
2022/03/26 03:41:17;;;;;;;6.00;5.40;;;;;;;;;;5054558;28;20285;-68
2022/03/26 03:43:44;;;;;;;7.70;5.50;;;;;;;;;;5052651;28;20839;-68
2022/03/26 03:46:12;;;;;;;5.53;5.03;;;;;;;;;;5069918;28;20894;-68
2022/03/26 03:48:40;;;;;;;5.97;5.40;;;;;;;;;;5069479;28;20198;-68
2022/03/26 03:51:07;;;;;;;6.33;5.60;;;;;;;;;;5069363;28;20611;-67
2022/03/26 03:53:35;;;;;;;6.03;5.43;;;;;;;;;;5073768;28;20635;-67
2022/03/26 03:56:07;;;;;;;5.67;5.17;;;;;;;;;;5070235;28;20206;-68
2022/03/26 03:58:34;;;;;;;6.50;5.77;;;;;;;;;;5069655;28;20722;-67
2022/03/26 04:01:02;;;;;;;5.30;4.80;;;;;;;;;;5067736;28;20224;-68
2022/03/26 04:03:29;;;;;;;6.47;5.60;;;;;;;;;;5058513;28;20205;-68
2022/03/26 04:05:58;;;;;;;6.50;5.90;;;;;;;;;;5066363;28;20210;-67
2022/03/26 04:08:25;;;;;;;6.33;5.73;;;;;;;;;;5078083;28;20186;-68
2022/03/26 04:10:53;;;;;;;6.20;5.40;;;;;;;;;;5063522;28;20815;-68
2022/03/26 04:13:20;;;;;;;6.03;5.53;;;;;;;;;;5039347;28;20218;-67
2022/03/26 04:15:47;;;;;;;6.47;5.63;;;;;;;;;;5069601;28;20251;-68
2022/03/26 04:18:15;;;;;;;6.37;5.27;;;;;;;;;;5065957;28;20211;-68
2022/03/26 04:20:42;;;;;;;6.13;5.50;;;;;;;;;;5068672;28;20571;-68
2022/03/26 04:23:10;;;;;;;6.57;5.97;;;;;;;;;;5067610;28;20205;-68
2022/03/26 04:25:38;;;;;;;6.27;5.60;;;;;;;;;;5068769;28;20193;-67
2022/03/26 04:28:05;;;;;;;6.60;5.90;;;;;;;;;;5070009;28;20252;-68
2022/03/26 04:30:32;;;;;;;5.97;5.37;;;;;;;;;;5065947;28;20201;-67
2022/03/26 04:32:59;;;;;;;6.30;5.70;;;;;;;;;;5076840;28;20589;-68
2022/03/26 04:35:27;;;;;;;6.13;5.53;;;;;;;;;;5068701;28;20198;-68
2022/03/26 04:37:56;;;;;;;5.93;5.43;;;;;;;;;;5068624;28;20213;-68
2022/03/26 04:40:24;;;;;;;6.67;6.03;;;;;;;;;;5059422;28;20201;-68
2022/03/26 04:42:51;;;;;;;6.23;5.63;;;;;;;;;;5057120;28;20302;-68
2022/03/26 04:45:18;;;;;;;6.57;5.87;;;;;;;;;;5068688;28;20205;-67
2022/03/26 04:47:45;;;;;;;6.90;6.20;;;;;;;;;;5068631;28;20247;-68
2022/03/26 04:50:12;;;;;;;7.30;6.60;;;;;;;;;;5069403;28;20624;-67
2022/03/26 04:52:40;;;;;;;8.10;6.53;;;;;;;;;;5068008;28;20244;-67
2022/03/26 04:55:11;;;;;;;6.03;5.43;;;;;;;;;;5063313;28;20408;-68
2022/03/26 04:57:42;;;;;;;7.37;6.00;;;;;;;;;;5067955;28;20216;-68
2022/03/26 05:00:10;;;;;;;7.17;6.47;;;;;;;;;;5067361;28;20194;-68
2022/03/26 05:02:38;;;;;;;6.80;6.10;;;;;;;;;;5068622;28;20218;-67
2022/03/26 05:05:07;;;;;;;7.43;5.87;;;;;;;;;;5046289;28;20291;-67
2022/03/26 05:07:51;;;;;;;6.63;5.93;;;;;;;;;;5068584;28;20207;-67
2022/03/26 05:10:27;;;;;;;6.80;6.07;;;;;;;;;;5071528;28;20224;-67
2022/03/26 05:12:57;;;;;;;6.83;6.13;;;;;;;;;;5047818;28;20209;-68
2022/03/26 05:15:32;;;;;;;9.17;6.47;;;;;;;;;;5051538;28;20269;-66
2022/03/26 05:18:13;;;;;;;6.70;6.10;;;;;;;;;;5056112;28;20224;-68
2022/03/26 05:20:50;;;;;;;7.53;6.10;;;;;;;;;;5072940;28;20201;-65
2022/03/26 05:23:36;;;;;;;6.73;6.03;;;;;;;;;;5070337;28;20216;-65
2022/03/26 05:26:06;;;;;;;6.60;6.00;;;;;;;;;;5043167;28;20189;-65
2022/03/26 05:28:38;;;;;;;6.83;6.10;;;;;;;;;;5077529;28;20215;-66
2022/03/26 05:31:09;;;;;;;6.80;6.20;;;;;;;;;;5061623;28;20194;-65
2022/03/26 05:33:39;;;;;;;7.47;6.50;;;;;;;;;;5050960;28;20676;-66
2022/03/26 05:36:07;;;;;;;6.90;6.20;;;;;;;;;;5067500;28;20236;-65
2022/03/26 05:38:34;;;;;;;7.20;6.60;;;;;;;;;;5067757;28;20259;-64
2022/03/26 05:41:01;;;;;;;7.60;6.07;;;;;;;;;;5061795;28;20564;-65
2022/03/26 05:43:28;;;;;;;7.73;5.50;;;;;;;;;;5067790;28;20263;-65
2022/03/26 05:45:55;;;;;;;6.63;5.93;;;;;;;;;;5067920;28;20202;-65
2022/03/26 05:48:23;;;;;;;6.70;6.10;;;;;;;;;;5070082;28;20208;-65
2022/03/26 05:50:50;;;;;;;8.00;6.40;;;;;;;;;;5046336;28;20205;-65
2022/03/26 05:53:17;;;;;;;6.43;5.73;;;;;;;;;;5068786;28;20631;-65
2022/03/26 05:55:44;;;;;;;7.00;5.70;;;;;;;;;;5066775;28;20193;-65
2022/03/26 05:58:12;;;;;;;6.73;5.53;;;;;;;;;;5066738;28;20615;-65
2022/03/26 06:00:39;;;;;;;5.90;5.37;;;;;;;;;;5066831;28;20216;-65
2022/03/26 06:03:06;;;;;;;8.23;6.40;;;;;;;;;;5066661;28;20427;-66
2022/03/26 06:05:34;;;;;;;6.67;5.90;;;;;;;;;;5065202;28;20226;-65
2022/03/26 06:08:01;;;;;;;6.50;5.90;;;;;;;;;;5056987;28;20205;-66
2022/03/26 06:10:28;;;;;;;6.53;5.93;;;;;;;;;;5067281;28;20205;-65
2022/03/26 06:12:55;;;;;;;6.30;5.63;;;;;;;;;;5043234;28;20264;-65
2022/03/26 06:15:23;;;;;;;6.13;5.40;;;;;;;;;;5069676;28;20223;-63
2022/03/26 06:18:09;;;;;;;7.57;6.47;;;;;;;;;;5066513;28;20213;-65
2022/03/26 06:20:36;;;;;;;7.60;6.50;;;;;;;;;;5070937;28;20197;-65
2022/03/26 06:23:03;;;;;;;7.10;6.10;;;;;;;;;;5073158;28;20218;-66
2022/03/26 06:25:31;;;;;;;6.80;6.00;;;;;;;;;;5075873;28;20206;-66
2022/03/26 06:27:58;;;;;;;7.23;6.53;;;;;;;;;;5069796;28;20224;-64
2022/03/26 06:30:25;;;;;;;7.07;6.37;;;;;;;;;;5048218;28;20221;-65
2022/03/26 06:32:54;;;;;;;6.90;6.20;;;;;;;;;;5067258;28;20197;-65
2022/03/26 06:35:25;;;;;;;7.60;6.90;;;;;;;;;;5061794;28;20193;-65
2022/03/26 06:37:52;;;;;;;7.40;6.07;;;;;;;;;;5066147;28;20254;-65
2022/03/26 06:40:20;;;;;;;7.90;6.93;;;;;;;;;;5048680;28;21425;-65
2022/03/26 06:42:47;;;;;;;6.73;6.10;;;;;;;;;;5063133;28;20286;-66
2022/03/26 06:45:16;;;;;;;7.53;6.40;;;;;;;;;;5066050;28;20208;-66
2022/03/26 06:47:44;;;;;;;6.57;5.93;;;;;;;;;;5066754;28;20189;-66
2022/03/26 06:50:11;;;;;;;6.97;6.03;;;;;;;;;;5076517;28;20763;-65
2022/03/26 06:52:38;;;;;;;6.73;6.00;;;;;;;;;;5066375;28;20787;-65
2022/03/26 06:55:07;;;;;;;6.73;6.03;;;;;;;;;;5067583;28;20706;-65
2022/03/26 06:57:35;;;;;;;7.03;6.20;;;;;;;;;;5066552;28;20256;-65
2022/03/26 07:00:02;;;;;;;7.53;6.20;;;;;;;;;;5067266;28;20262;-65
2022/03/26 07:02:31;;;;;;;6.83;6.10;;;;;;;;;;5049915;28;20224;-67
2022/03/26 07:04:58;;;;;;;6.77;6.10;;;;;;;;;;5071715;28;20202;-66
2022/03/26 07:07:34;;;;;;;6.67;6.00;;;;;;;;;;5073416;28;20201;-66
2022/03/26 07:10:01;;;;;;;7.17;6.30;;;;;;;;;;5077942;28;20287;-65
2022/03/26 07:12:29;;;;;;;6.27;5.67;;;;;;;;;;5069107;28;20202;-68
2022/03/26 07:14:56;;;;;;;6.87;5.77;;;;;;;;;;5068469;28;20194;-68
2022/03/26 07:17:25;;;;;;;6.97;5.87;;;;;;;;;;5067773;28;20222;-67
2022/03/26 07:19:53;;;;;;;7.20;6.33;;;;;;;;;;5067660;28;20623;-68
2022/03/26 07:22:29;;;;;;;6.97;5.90;;;;;;;;;;5065437;28;20213;-65
2022/03/26 07:24:59;;;;;;;7.27;6.40;;;;;;;;;;5053788;28;20194;-64
2022/03/26 07:27:29;;;;;;;7.20;5.77;;;;;;;;;;5065890;28;20248;-64
2022/03/26 07:29:56;;;;;;;6.73;6.03;;;;;;;;;;5062162;28;20205;-65
2022/03/26 07:32:25;;;;;;;7.03;6.17;;;;;;;;;;5066328;28;20250;-66
2022/03/26 07:34:56;;;;;;;6.87;5.77;;;;;;;;;;5065178;28;20619;-67
2022/03/26 07:37:24;;;;;;;6.97;6.27;;;;;;;;;;5065403;28;20228;-65
2022/03/26 07:39:51;;;;;;;7.60;6.10;;;;;;;;;;5068173;28;20270;-65
2022/03/26 07:42:18;;;;;;;7.03;6.20;;;;;;;;;;5047137;28;20226;-68
2022/03/26 07:44:45;;;;;;;6.60;5.60;;;;;;;;;;5069546;28;20213;-68
2022/03/26 07:47:12;;;;;;;6.10;5.50;;;;;;;;;;5075324;28;20223;-66
2022/03/26 07:49:40;;;;;;;6.50;5.80;;;;;;;;;;5071753;28;20206;-66
2022/03/26 07:52:07;;;;;;;6.83;6.13;;;;;;;;;;5068091;28;20241;-67
2022/03/26 07:54:34;;;;;;;6.17;5.57;;;;;;;;;;5074121;28;20228;-66
2022/03/26 07:57:13;;;;;;;7.33;6.37;;;;;;;;;;5063741;28;20216;-65
2022/03/26 07:59:42;;;;;;;6.67;5.83;;;;;;;;;;5049938;28;20197;-66
2022/03/26 08:02:12;;;;;;;6.67;5.90;;;;;;;;;;5066773;28;20222;-67
2022/03/26 08:04:45;;;;;;;6.70;5.73;;;;;;;;;;5047023;28;20194;-67
2022/03/26 08:07:12;;;;;;;10.07;6.13;;;;;;;;;;5058211;28;20248;-66
2022/03/26 08:09:39;;;;;;;6.33;5.73;;;;;;;;;;5040644;28;20594;-63
2022/03/26 08:12:07;;;;;;;7.93;6.30;;;;;;;;;;5063851;28;20203;-67
2022/03/26 08:14:35;;;;;;;8.00;5.87;;;;;;;;;;5063907;28;20198;-64
2022/03/26 08:17:02;;;;;;;7.00;6.30;;;;;;;;;;5065105;28;20250;-66
2022/03/26 08:19:37;;;;;;;6.50;5.90;;;;;;;;;;5052793;28;20609;-65
2022/03/26 08:22:04;;;;;;;7.80;6.07;;;;;;;;;;5063471;28;20271;-67
2022/03/26 08:24:32;;;;;;;8.60;6.30;;;;;;;;;;5068832;28;20186;-67
2022/03/26 08:26:59;;;;;;;6.70;6.00;;;;;;;;;;5065307;28;20190;-67
2022/03/26 08:29:32;;;;;;;7.70;6.90;;;;;;;;;;5044750;28;20228;-68
2022/03/26 08:32:04;;;;;;;6.83;5.87;;;;;;;;;;5047066;28;20216;-68
2022/03/26 08:34:36;;;;;;;9.77;6.13;;;;;;;;;;5051629;28;20210;-68
2022/03/26 08:37:06;;;;;;;10.20;6.43;;;;;;;;;;5066833;28;20209;-67
2022/03/26 08:39:33;;;;;;;9.47;6.60;;;;;;;;;;5064670;28;20202;-68
2022/03/26 08:42:01;;;;;;;9.27;6.77;;;;;;;;;;5064490;28;20225;-65
2022/03/26 08:44:28;;;;;;;7.00;5.70;;;;;;;;;;5068500;28;20243;-65
2022/03/26 08:46:56;;;;;;;8.30;6.10;;;;;;;;;;5066017;28;20193;-66
2022/03/26 08:49:24;;;;;;;7.23;6.30;;;;;;;;;;5066577;28;20201;-65
2022/03/26 08:51:53;;;;;;;8.77;6.63;;;;;;;;;;5070510;28;20229;-67
2022/03/26 08:54:23;;;;;;;9.37;6.90;;;;;;;;;;5047098;28;20220;-67
2022/03/26 08:56:51;;;;;;;6.73;5.93;;;;;;;;;;5067367;28;20212;-66
2022/03/26 08:59:29;;;;;;;9.90;6.20;;;;;;;;;;5067786;28;20191;-65
2022/03/26 09:01:58;;;;;;;8.00;6.00;;;;;;;;;;5068146;28;20251;-65
2022/03/26 09:04:26;;;;;;;9.30;6.53;;;;;;;;;;5061830;28;20196;-66
2022/03/26 09:06:54;;;;;;;9.63;6.73;;;;;;;;;;5062823;28;20221;-66
2022/03/26 09:09:26;;;;;;;8.73;6.70;;;;;;;;;;5047155;28;20205;-67
2022/03/26 09:11:57;;;;;;;8.60;7.07;;;;;;;;;;5067161;28;20212;-67
2022/03/26 09:14:26;;;;;;;8.50;6.83;;;;;;;;;;5068460;28;20323;-66
2022/03/26 09:16:55;;;;;;;8.73;6.83;;;;;;;;;;5029395;28;20200;-68
2022/03/26 09:19:24;;;;;;;10.37;7.20;;;;;;;;;;5067636;28;20197;-67
2022/03/26 09:21:54;;;;;;;15.23;7.37;;;;;;;;;;5063013;28;20196;-66
2022/03/26 09:24:26;;;;;;;9.33;7.43;;;;;;;;;;5067357;28;20193;-67
2022/03/26 09:26:57;;;;;;;9.90;6.93;;;;;;;;;;5061034;28;20260;-64
2022/03/26 09:29:29;;;;;;;10.47;7.10;;;;;;;;;;5064596;28;20275;-64
2022/03/26 09:32:00;;;;;;;11.57;8.00;;;;;;;;;;5068499;28;20200;-67
2022/03/26 09:34:32;;;;;;;12.57;7.60;;;;;;;;;;5050050;28;20209;-65
2022/03/26 09:37:04;;;;;;;13.80;7.70;;;;;;;;;;5058140;28;20638;-65
2022/03/26 09:39:35;;;;;;;11.97;7.30;;;;;;;;;;5054383;28;20213;-66
2022/03/26 09:42:09;;;;;;;14.43;7.57;;;;;;;;;;5060895;28;20217;-68
2022/03/26 09:44:41;;;;;;;11.67;6.90;;;;;;;;;;5048152;28;20197;-69
2022/03/26 09:47:14;;;;;;;10.60;7.70;;;;;;;;;;5063572;28;20239;-66
2022/03/26 09:49:44;;;;;;;11.03;7.80;;;;;;;;;;5067465;28;20189;-65
2022/03/26 09:52:14;;;;;;;11.67;7.33;;;;;;;;;;5066396;28;20264;-65
2022/03/26 09:54:44;;;;;;;10.30;6.67;;;;;;;;;;5034518;28;20209;-66
2022/03/26 09:57:14;;;;;;;11.13;7.20;;;;;;;;;;5063191;28;20482;-65
2022/03/26 09:59:54;;;;;;;9.93;7.10;;;;;;;;;;5043890;28;20250;-66
2022/03/26 10:02:26;;;;;;;8.90;6.80;;;;;;;;;;5067885;28;20232;-65
2022/03/26 10:04:57;;;;;;;8.20;6.83;;;;;;;;;;5042302;28;20202;-62
2022/03/26 10:07:36;;;;;;;145.00;33.13;;;;;;;;;;5064561;28;20201;-66
2022/03/26 10:10:26;;;;;;;132.00;30.97;;;;;;;;;;5062821;28;20272;-65
2022/03/26 10:12:57;;;;;;;115.93;27.43;;;;;;;;;;5036178;28;20213;-64
2022/03/26 10:15:28;;;;;;;81.47;21.97;;;;;;;;;;5058931;28;20209;-66
2022/03/26 10:18:09;;;;;;;75.37;20.77;;;;;;;;;;5061767;28;20205;-67
2022/03/26 10:20:38;;;;;;;56.03;17.23;;;;;;;;;;5065081;28;20214;-65
2022/03/26 10:23:05;;;;;;;50.67;15.93;;;;;;;;;;5047160;28;20581;-66
2022/03/26 10:25:34;;;;;;;46.73;15.40;;;;;;;;;;5035952;28;20210;-65
2022/03/26 10:28:05;;;;;;;41.10;13.83;;;;;;;;;;5064163;28;20214;-66
2022/03/26 10:33:30;;;;;;;35.17;14.03;;;;;;;;;;5065427;28;20224;-66
2022/03/26 10:36:02;;;;;;;29.60;12.00;;;;;;;;;;5047942;28;20203;-66
2022/03/26 10:38:42;;;;;;;31.13;11.27;;;;;;;;;;5048989;28;20205;-66
2022/03/26 10:41:11;;;;;;;24.67;11.27;;;;;;;;;;5067262;28;20212;-65
2022/03/26 10:43:41;;;;;;;22.60;11.37;;;;;;;;;;5063068;28;20213;-66
2022/03/26 10:46:09;;;;;;;22.33;10.60;;;;;;;;;;5068276;28;20223;-65
2022/03/26 10:48:37;;;;;;;19.53;9.50;;;;;;;;;;5067680;28;20178;-65
2022/03/26 10:51:17;;;;;;;16.53;9.17;;;;;;;;;;5063338;28;20222;-64
2022/03/26 10:53:54;;;;;;;16.53;9.13;;;;;;;;;;5060016;28;20224;-64
2022/03/26 10:56:22;;;;;;;14.47;9.10;;;;;;;;;;5065101;28;20264;-66
2022/03/26 10:58:49;;;;;;;16.50;8.87;;;;;;;;;;5064180;28;20583;-66
2022/03/26 11:01:16;;;;;;;11.20;7.90;;;;;;;;;;5068379;28;20196;-64
2022/03/26 11:03:44;;;;;;;17.67;9.90;;;;;;;;;;5066893;28;20240;-65
2022/03/26 11:06:15;;;;;;;29.03;10.70;;;;;;;;;;5068625;28;20189;-67
2022/03/26 11:08:44;;;;;;;30.20;12.00;;;;;;;;;;5060226;28;20264;-64
2022/03/26 11:11:24;;;;;;;27.73;11.60;;;;;;;;;;5051897;28;20190;-66
2022/03/26 11:13:55;;;;;;;27.23;10.53;;;;;;;;;;5060301;28;20609;-65
2022/03/26 11:16:31;;;;;;;24.53;10.83;;;;;;;;;;5043263;28;20205;-65
2022/03/26 11:19:21;;;;;;;30.63;10.43;;;;;;;;;;5054936;28;20201;-66
2022/03/26 11:22:08;;;;;;;24.87;10.63;;;;;;;;;;5067646;28;20205;-65
2022/03/26 11:24:51;;;;;;;25.60;10.43;;;;;;;;;;5067330;28;20202;-65
2022/03/26 11:27:53;;;;;;;27.97;10.67;;;;;;;;;;5066328;28;20205;-66
2022/03/26 11:30:31;;;;;;;20.40;10.23;;;;;;;;;;5064393;28;20205;-66
2022/03/26 11:33:15;;;;;;;23.90;10.97;;;;;;;;;;5065102;28;20193;-65
2022/03/26 11:35:59;;;;;;;21.57;9.97;;;;;;;;;;5049090;28;20212;-66
2022/03/26 11:38:30;;;;;;;17.13;9.23;;;;;;;;;;5050808;28;20198;-66
2022/03/26 11:41:08;;;;;;;15.30;8.97;;;;;;;;;;5061828;28;20201;-67
2022/03/26 11:43:45;;;;;;;18.37;8.73;;;;;;;;;;5045959;28;20217;-67
2022/03/26 11:52:12;;;;;;;15.70;7.80;;;;;;;;;;5050389;28;20225;-66
2022/03/26 11:54:39;;;;;;;13.07;7.77;;;;;;;;;;5067334;28;20216;-67
2022/03/26 11:57:10;;;;;;;14.00;7.30;;;;;;;;;;5067229;28;20852;-65
2022/03/26 11:59:39;;;;;;;12.63;7.67;;;;;;;;;;5069104;28;20194;-65
2022/03/26 12:02:19;;;;;;;11.07;7.27;;;;;;;;;;5077126;28;20241;-65
2022/03/26 12:04:51;;;;;;;9.87;6.80;;;;;;;;;;5064907;28;20282;-64
2022/03/26 12:07:20;;;;;;;13.90;6.73;;;;;;;;;;5058059;28;20636;-66
2022/03/26 12:09:52;;;;;;;10.97;6.60;;;;;;;;;;5069842;28;20267;-67
2022/03/26 12:12:20;;;;;;;12.50;7.23;;;;;;;;;;5069175;28;20201;-66
2022/03/26 12:15:07;;;;;;;9.53;6.37;;;;;;;;;;5067851;28;20218;-65
2022/03/26 12:17:44;;;;;;;10.43;6.50;;;;;;;;;;5065426;28;20287;-66
2022/03/26 12:20:22;;;;;;;8.93;5.90;;;;;;;;;;5066995;28;20236;-65
2022/03/26 12:22:50;;;;;;;10.30;6.70;;;;;;;;;;5064582;28;20275;-66
2022/03/26 12:25:18;;;;;;;11.60;6.40;;;;;;;;;;5067105;28;20201;-65
2022/03/26 12:27:45;;;;;;;8.37;6.07;;;;;;;;;;5069934;28;20174;-65
2022/03/26 12:30:14;;;;;;;6.93;5.33;;;;;;;;;;5066188;28;20344;-67
2022/03/26 12:32:42;;;;;;;7.43;5.20;;;;;;;;;;5069079;28;20201;-67
2022/03/26 12:35:10;;;;;;;8.10;5.27;;;;;;;;;;5067906;28;20779;-66
2022/03/26 12:37:38;;;;;;;6.13;5.20;;;;;;;;;;5069022;28;20271;-66
2022/03/26 12:40:07;;;;;;;7.33;5.90;;;;;;;;;;5069090;28;20247;-65
2022/03/26 12:42:34;;;;;;;6.30;5.17;;;;;;;;;;5061701;28;20201;-66
2022/03/26 12:45:12;;;;;;;7.30;5.20;;;;;;;;;;5048369;28;20339;-67
2022/03/26 12:47:42;;;;;;;6.57;5.07;;;;;;;;;;5067704;28;20246;-64
2022/03/26 12:50:10;;;;;;;6.97;5.23;;;;;;;;;;5068770;28;20190;-65
2022/03/26 12:52:37;;;;;;;8.20;5.30;;;;;;;;;;5064928;28;20283;-66
2022/03/26 12:55:04;;;;;;;6.27;4.57;;;;;;;;;;5063620;28;20205;-66
2022/03/26 13:00:24;;;;;;;6.80;5.20;;;;;;;;;;5067359;28;20189;-66
2022/03/26 13:03:08;;;;;;;6.40;4.70;;;;;;;;;;5066755;28;20218;-65
2022/03/26 13:05:37;;;;;;;6.83;4.53;;;;;;;;;;5066075;28;20209;-65
2022/03/26 13:08:05;;;;;;;6.77;5.10;;;;;;;;;;5070070;28;20670;-66
2022/03/26 13:10:36;;;;;;;7.13;5.20;;;;;;;;;;5069291;28;20197;-67
2022/03/26 13:13:05;;;;;;;7.40;5.43;;;;;;;;;;5066469;28;20198;-66
2022/03/26 13:15:32;;;;;;;5.27;4.77;;;;;;;;;;5056798;28;20255;-65
2022/03/26 13:18:01;;;;;;;8.17;4.47;;;;;;;;;;5064559;28;20279;-67
2022/03/26 13:20:30;;;;;;;6.77;5.00;;;;;;;;;;5055788;28;20758;-66
2022/03/26 13:22:58;;;;;;;7.07;4.17;;;;;;;;;;5064038;28;20634;-67
2022/03/26 13:25:25;;;;;;;6.43;4.40;;;;;;;;;;5066685;28;20252;-66
2022/03/26 13:27:52;;;;;;;6.57;4.63;;;;;;;;;;5067282;28;20423;-66
2022/03/26 13:30:19;;;;;;;5.57;4.40;;;;;;;;;;5063897;28;20205;-66
2022/03/26 13:32:53;;;;;;;12.47;5.07;;;;;;;;;;5046234;28;20254;-66
2022/03/26 13:35:20;;;;;;;8.57;4.60;;;;;;;;;;5068944;28;20715;-68
2022/03/26 13:37:47;;;;;;;6.10;4.40;;;;;;;;;;5065203;28;20216;-68
2022/03/26 13:40:15;;;;;;;7.57;4.40;;;;;;;;;;5066083;28;20205;-69
2022/03/26 13:42:44;;;;;;;5.10;4.37;;;;;;;;;;5063276;28;20770;-69
2022/03/26 13:45:11;;;;;;;5.37;4.40;;;;;;;;;;5063611;28;20214;-66
2022/03/26 13:47:38;;;;;;;4.83;4.10;;;;;;;;;;5066173;28;20620;-67
2022/03/26 13:50:10;;;;;;;7.43;4.10;;;;;;;;;;5065341;28;20208;-65
2022/03/26 13:52:42;;;;;;;5.10;4.07;;;;;;;;;;5062871;28;20237;-66
2022/03/26 13:55:25;;;;;;;4.20;3.80;;;;;;;;;;5057635;28;20283;-67
2022/03/26 13:57:53;;;;;;;5.73;3.87;;;;;;;;;;5062594;28;20208;-67
2022/03/26 14:00:22;;;;;;;5.17;4.03;;;;;;;;;;5059406;28;20210;-66
2022/03/26 14:02:50;;;;;;;5.43;3.77;;;;;;;;;;5062129;28;20217;-66
2022/03/26 14:05:19;;;;;;;5.70;4.53;;;;;;;;;;5062281;28;20347;-65
2022/03/26 14:07:47;;;;;;;6.13;4.40;;;;;;;;;;5064632;28;20209;-66
2022/03/26 14:10:14;;;;;;;6.03;4.43;;;;;;;;;;5066349;28;20219;-68
2022/03/26 14:12:41;;;;;;;5.23;4.73;;;;;;;;;;5068432;28;20193;-67
2022/03/26 14:15:10;;;;;;;6.10;4.23;;;;;;;;;;5064699;28;20205;-67
2022/03/26 14:17:44;;;;;;;5.37;4.00;;;;;;;;;;5063690;28;20214;-67
2022/03/26 14:20:16;;;;;;;5.67;4.10;;;;;;;;;;5068193;28;20247;-67
2022/03/26 14:22:47;;;;;;;5.07;3.90;;;;;;;;;;5064509;28;20247;-67
2022/03/26 14:25:20;;;;;;;5.87;4.80;;;;;;;;;;5066532;28;20602;-67
2022/03/26 14:27:50;;;;;;;5.83;4.70;;;;;;;;;;5067641;28;20201;-68
2022/03/26 14:30:19;;;;;;;5.63;4.63;;;;;;;;;;5063863;28;20197;-66
2022/03/26 14:32:51;;;;;;;5.60;4.70;;;;;;;;;;5064283;28;20627;-68
2022/03/26 14:35:21;;;;;;;4.33;3.93;;;;;;;;;;5070113;28;20307;-67
2022/03/26 14:37:55;;;;;;;5.40;3.73;;;;;;;;;;5066301;28;20190;-67
2022/03/26 14:40:27;;;;;;;4.83;4.30;;;;;;;;;;5066396;28;20206;-67
2022/03/26 14:43:02;;;;;;;6.23;4.67;;;;;;;;;;5060647;28;20220;-68
2022/03/26 14:45:31;;;;;;;5.40;4.73;;;;;;;;;;5067395;28;20229;-68
2022/03/26 14:48:03;;;;;;;4.90;4.40;;;;;;;;;;5065618;28;20200;-67
2022/03/26 14:50:35;;;;;;;4.97;4.20;;;;;;;;;;5054466;28;20408;-67
2022/03/26 14:53:06;;;;;;;5.40;4.03;;;;;;;;;;5061858;28;20225;-68
2022/03/26 14:55:37;;;;;;;6.13;4.47;;;;;;;;;;5063907;28;20210;-67
2022/03/26 14:58:08;;;;;;;5.43;4.00;;;;;;;;;;5043866;28;20233;-68
2022/03/26 15:00:42;;;;;;;4.93;4.43;;;;;;;;;;5061607;28;20209;-67
2022/03/26 15:03:12;;;;;;;5.53;4.47;;;;;;;;;;5063079;28;20209;-68
2022/03/26 15:05:42;;;;;;;4.30;3.90;;;;;;;;;;5062396;28;20600;-68
2022/03/26 15:08:19;;;;;;;5.80;4.37;;;;;;;;;;5068023;28;20189;-67